Main page
METAR-TAF:

Airports :

Çorlu, Turkey

Tekirdağ Çorlu Airport

latitude: 41-08N, longitude: 027-55E, elevation: 173 m

Current weather observation

The report was made 47 minutes ago, at 19:50 UTC
Wind 8 kt from the North/Northeast
Temperature 9°C
Humidity 100%
Pressure 1018 hPa
Visibility 10 km or more
no clouds below 1500 m and no cumulonimbus

METAR: LTBU 301950Z 02008KT CAVOK 09/09 Q1018 RMK RWY23 03008KT

Time: 23:37 (20:37 UTC)

Forecast

The report was made 3 hours and 57 minutes ago, at 16:40 UTC
Forecast valid from 30 at 18 UTC to 01 at 18 UTC
Wind 9 kt from the North/Northeast
Visibility 10 km or more
no clouds below 1500 m and no cumulonimbus

TAF: LTBU 301640Z 3018/0118 03009KT CAVOK

METAR-TAF

Weather observations and forecasts of more than 4000 airports (METAR and TAF reports).

The available stations are represented by yellow and red dots on the map.

Hover mouse over dot to see the name of the station.

Then click to see weather observations and forecasts.

To change the map : click on the green buttons with a black cross to zoom in, on the green button with a dash to zoom out, or on the green arrows for adjacent maps.


METAR-TAF: